createdAt,value
2019-04-22T00:01:28.615Z,95344.57
2019-04-22T00:04:01.358Z,95339.91
2019-04-22T00:06:51.700Z,95340.75
2019-04-22T00:09:24.159Z,95344.14
2019-04-22T00:11:52.881Z,95338.61
2019-04-22T00:14:18.059Z,95330.53
2019-04-22T00:16:51.682Z,95333.92
2019-04-22T00:19:33.881Z,95333.94
2019-04-22T00:21:55.233Z,95323.34
2019-04-22T00:24:24.323Z,95324.66
2019-04-22T00:26:59.614Z,95320.44
2019-04-22T00:29:46.251Z,95320.45
2019-04-22T00:31:59.026Z,95314.12
2019-04-22T00:34:29.442Z,95310.34
2019-04-22T00:37:02.116Z,95309.09
2019-04-22T00:39:35.900Z,95304.46
2019-04-22T00:42:08.082Z,95303.19
2019-04-22T00:44:41.572Z,95306.59
2019-04-22T00:47:08.659Z,95304.49
2019-04-22T00:50:06.628Z,95306.59
2019-04-22T00:52:09.618Z,95311.27
2019-04-22T00:54:43.870Z,95319.33
2019-04-22T00:57:10.440Z,95311.29
2019-04-22T00:59:37.585Z,95305.34
2019-04-22T01:02:13.145Z,95312.53
2019-04-22T01:04:46.496Z,95309.97
2019-04-22T01:07:15.488Z,95315.48
2019-04-22T01:09:44.689Z,95310.38
2019-04-22T01:12:13.831Z,95310.37
2019-04-22T01:14:41.333Z,95318.02
2019-04-22T01:17:11.595Z,95315.45
2019-04-22T01:19:52.290Z,95315.89
2019-04-22T01:22:17.768Z,95313.77
2019-04-22T01:24:38.703Z,95315.44
2019-04-22T01:27:10.534Z,95317.15
2019-04-22T01:29:39.760Z,95304.86
2019-04-22T01:31:56.446Z,95299.34
2019-04-22T01:34:40.074Z,95297.24
2019-04-22T01:37:18.763Z,95289.19
2019-04-22T01:39:49.891Z,95281.13
2019-04-22T01:42:20.216Z,95281.58
2019-04-22T01:44:50.993Z,95282.02
2019-04-22T01:47:25.135Z,95278.64
2019-04-22T01:49:55.678Z,95279.90
2019-04-22T01:52:24.789Z,95270.16
2019-04-22T01:55:02.171Z,95285.88
2019-04-22T01:57:22.949Z,95284.58
2019-04-22T01:59:55.213Z,95277.81
2019-04-22T02:02:31.080Z,95285.90
2019-04-22T02:04:59.651Z,95288.44
2019-04-22T02:07:29.524Z,95283.77
2019-04-22T02:09:55.549Z,95277.84
2019-04-22T02:12:36.792Z,95277.42
2019-04-22T02:14:57.845Z,95278.67
2019-04-22T02:17:41.536Z,95275.69
2019-04-22T02:20:04.031Z,95273.14
2019-04-22T02:22:50.855Z,95276.52
2019-04-22T02:25:08.808Z,95272.28
2019-04-22T02:27:43.754Z,95272.70
2019-04-22T02:30:06.158Z,95273.16
2019-04-22T02:32:52.022Z,95271.89
2019-04-22T02:35:10.964Z,95272.73
2019-04-22T02:37:35.831Z,95271.89
2019-04-22T02:40:09.701Z,95267.23
2019-04-22T02:42:35.052Z,95264.27
2019-04-22T02:45:09.660Z,95268.93
2019-04-22T02:47:42.194Z,95267.23
2019-04-22T02:50:08.850Z,95265.13
2019-04-22T03:00:27.376Z,95263.86
2019-04-22T03:05:19.548Z,95261.32
2019-04-22T03:07:54.374Z,95258.75
2019-04-22T03:10:30.130Z,95252.81
2019-04-22T03:12:41.887Z,95254.11
2019-04-22T03:15:13.564Z,95244.78
2019-04-22T03:17:45.252Z,95251.13
2019-04-22T03:22:47.618Z,95242.25
2019-04-22T03:37:52.618Z,95231.64
2019-04-22T03:40:30.859Z,95229.09
2019-04-22T03:42:59.700Z,95226.55
2019-04-22T03:50:25.915Z,95223.14
2019-04-22T03:57:51.915Z,95222.72
2019-04-22T04:00:35.991Z,95221.03
2019-04-22T04:05:50.285Z,95214.23
2019-04-22T04:08:15.101Z,95210.42
2019-04-22T04:10:35.331Z,95218.04
2019-04-22T04:13:02.768Z,95213.80
2019-04-22T04:17:55.050Z,95215.92
2019-04-22T04:20:34.803Z,95217.19
2019-04-22T04:28:29.832Z,95224.40
2019-04-22T04:32:56.646Z,95226.08
2019-04-22T04:37:55.644Z,95227.77
2019-04-22T04:43:05.684Z,95232.82
2019-04-22T04:50:44.119Z,95245.13
2019-04-22T04:53:19.385Z,95251.88
2019-04-22T05:00:58.020Z,95258.20
2019-04-22T05:03:10.693Z,95255.23
2019-04-22T05:05:39.615Z,95264.53
2019-04-22T05:08:01.053Z,95265.35
2019-04-22T05:10:49.720Z,95268.75
2019-04-22T05:13:26.069Z,95270.44
2019-04-22T05:15:55.337Z,95274.25
2019-04-22T05:20:50.624Z,95275.86
2019-04-22T05:23:07.355Z,95275.45
2019-04-22T05:25:31.661Z,95280.94
2019-04-22T05:28:10.340Z,95285.17
2019-04-22T05:30:58.965Z,95288.56
2019-04-22T05:33:18.973Z,95287.26
2019-04-22T05:35:46.420Z,95293.20
2019-04-22T05:38:22.008Z,95297.87
2019-04-22T05:40:48.442Z,95299.55
2019-04-22T05:43:14.038Z,95302.10
2019-04-22T05:45:43.293Z,95308.02
2019-04-22T05:48:18.866Z,95315.23
2019-04-22T05:50:50.437Z,95316.88
2019-04-22T05:53:16.548Z,95321.98
2019-04-22T05:55:51.782Z,95318.98
2019-04-22T05:58:15.333Z,95318.55
2019-04-22T06:01:21.397Z,95320.25
2019-04-22T06:03:32.948Z,95327.06
2019-04-22T06:05:55.045Z,95333.88
2019-04-22T06:08:31.019Z,95342.39
2019-04-22T06:11:04.403Z,95353.02
2019-04-22T06:13:27.869Z,95350.92
2019-04-22T06:15:57.149Z,95359.44
2019-04-22T06:18:35.860Z,95367.95
2019-04-22T06:21:09.399Z,95370.92
2019-04-22T06:26:09.872Z,95375.20
2019-04-22T06:31:11.767Z,95380.73
2019-04-22T06:33:34.853Z,95382.00
2019-04-22T06:38:35.897Z,95385.84
2019-04-22T06:41:09.075Z,95388.80
2019-04-22T06:43:44.652Z,95392.63
2019-04-22T06:46:29.936Z,95395.20
2019-04-22T06:48:54.745Z,95398.61
2019-04-22T06:51:26.992Z,95400.73
2019-04-22T06:53:59.154Z,95403.71
2019-04-22T06:56:22.045Z,95404.98
2019-04-22T06:58:59.084Z,95405.41
2019-04-22T07:01:36.921Z,95412.65
2019-04-22T07:03:59.780Z,95407.55
2019-04-22T07:11:23.737Z,95416.02
2019-04-22T07:14:01.587Z,95417.31
2019-04-22T07:16:32.358Z,95419.44
2019-04-22T07:19:05.638Z,95419.01
2019-04-22T07:21:30.509Z,95424.92
2019-04-22T07:24:07.102Z,95427.89
2019-04-22T07:26:29.183Z,95425.35
2019-04-22T07:29:01.473Z,95423.66
2019-04-22T07:31:37.290Z,95432.55
2019-04-22T07:34:08.441Z,95435.93
2019-04-22T07:39:03.977Z,95433.79
2019-04-22T07:41:38.391Z,95434.20
2019-04-22T07:44:13.190Z,95433.36
2019-04-22T07:46:41.472Z,95438.00
2019-04-22T07:51:49.506Z,95440.53
2019-04-22T07:54:06.261Z,95450.75
2019-04-22T07:56:40.962Z,95446.47
2019-04-22T07:59:09.615Z,95450.28
2019-04-22T08:01:35.582Z,95451.94
2019-04-22T08:04:16.197Z,95453.63
2019-04-22T08:06:46.036Z,95453.61
2019-04-22T08:09:15.153Z,95458.28
2019-04-22T08:14:14.482Z,95460.87
2019-04-22T08:16:43.991Z,95456.61
2019-04-22T08:19:15.497Z,95463.39
2019-04-22T08:21:47.392Z,95460.84
2019-04-22T08:24:17.962Z,95459.55
2019-04-22T08:26:46.415Z,95469.31
2019-04-22T08:29:23.172Z,95468.05
2019-04-22T08:31:48.686Z,95471.88
2019-04-22T08:37:11.825Z,95465.02
2019-04-22T08:39:21.463Z,95466.67
2019-04-22T08:41:43.800Z,95464.06
2019-04-22T08:44:17.022Z,95474.22
2019-04-22T08:46:56.158Z,95478.45
2019-04-22T08:49:10.228Z,95480.55
2019-04-22T08:51:49.079Z,95478.77
2019-04-22T08:54:19.057Z,95480.82
2019-04-22T08:56:58.158Z,95483.71
2019-04-22T08:59:21.721Z,95489.19
2019-04-22T09:01:51.851Z,95497.18
2019-04-22T09:04:19.192Z,95493.27
2019-04-22T09:09:24.992Z,95488.86
2019-04-22T09:11:57.849Z,95495.20
2019-04-22T09:14:28.111Z,95490.45
2019-04-22T09:16:51.200Z,95494.19
2019-04-22T09:19:25.054Z,95498.81
2019-04-22T09:24:23.381Z,95500.84
2019-04-22T09:26:55.223Z,95502.05
2019-04-22T09:29:32.607Z,95499.90
2019-04-22T09:32:01.773Z,95502.05
2019-04-22T09:34:27.780Z,95499.49
2019-04-22T09:37:07.839Z,95493.48
2019-04-22T09:39:30.253Z,95494.70
2019-04-22T09:42:02.516Z,95497.98
2019-04-22T09:44:34.667Z,95498.75
2019-04-22T09:47:05.135Z,95495.25
2019-04-22T09:49:38.413Z,95491.80
2019-04-22T09:52:00.081Z,95502.36
2019-04-22T09:54:38.703Z,95497.58
2019-04-22T09:57:01.824Z,95505.66
2019-04-22T09:59:36.729Z,95510.38
2019-04-22T10:04:34.950Z,95508.71
2019-04-22T10:07:01.278Z,95511.66
2019-04-22T10:09:51.784Z,95516.33
2019-04-22T10:12:02.800Z,95513.31
2019-04-22T10:14:42.500Z,95515.05
2019-04-22T10:17:09.955Z,95517.59
2019-04-22T10:19:37.728Z,95512.41
2019-04-22T10:22:14.969Z,95519.59
2019-04-22T10:24:43.251Z,95521.67
2019-04-22T10:27:07.215Z,95521.22
2019-04-22T10:29:41.931Z,95519.48
2019-04-22T10:32:06.727Z,95516.91
2019-04-22T10:34:26.979Z,95521.20
2019-04-22T10:36:50.994Z,95523.70
2019-04-22T10:39:16.258Z,95524.92
2019-04-22T10:41:46.381Z,95536.39
2019-04-22T10:44:15.375Z,95531.64
2019-04-22T10:46:46.276Z,95529.08
2019-04-22T10:49:15.977Z,95532.93
2019-04-22T10:51:44.848Z,95532.16
2019-04-22T10:54:13.643Z,95524.59
2019-04-22T10:56:43.268Z,95520.81
2019-04-22T10:59:11.906Z,95518.72
2019-04-22T11:01:44.508Z,95520.87
2019-04-22T11:04:13.363Z,95519.48
2019-04-22T11:06:50.680Z,95521.20
2019-04-22T11:09:12.882Z,95519.98
2019-04-22T11:11:52.335Z,95522.94
2019-04-22T11:14:13.140Z,95522.94
2019-04-22T11:16:41.803Z,95531.08
2019-04-22T11:19:11.857Z,95528.96
2019-04-22T11:21:41.324Z,95538.48
2019-04-22T11:24:12.608Z,95530.36
2019-04-22T11:26:41.244Z,95518.83
2019-04-22T11:29:10.218Z,95519.67
2019-04-22T11:31:39.331Z,95515.05
2019-04-22T11:34:08.929Z,95520.69
2019-04-22T11:36:38.925Z,95515.22
2019-04-22T11:39:10.832Z,95513.94
2019-04-22T11:41:38.239Z,95509.61
2019-04-22T11:44:07.579Z,95504.97
2019-04-22T11:46:36.420Z,95493.90
2019-04-22T11:49:05.852Z,95495.57
2019-04-22T11:51:35.995Z,95487.78
2019-04-22T11:54:05.265Z,95489.06
2019-04-22T11:56:34.905Z,95486.44
2019-04-22T11:59:04.856Z,95485.98
2019-04-22T12:01:34.944Z,95476.94
2019-04-22T12:04:04.149Z,95469.20
2019-04-22T12:06:33.762Z,95467.34
2019-04-22T12:09:03.841Z,95471.59
2019-04-22T12:11:32.562Z,95463.27
2019-04-22T12:14:02.125Z,95460.89
2019-04-22T12:16:31.671Z,95447.45
2019-04-22T12:19:00.892Z,95445.92
2019-04-22T12:21:31.102Z,95443.53
2019-04-22T12:24:01.105Z,95439.50
2019-04-22T12:26:30.677Z,95434.17
2019-04-22T12:28:59.592Z,95438.16
2019-04-22T12:31:29.326Z,95434.68
2019-04-22T12:33:59.306Z,95437.54
2019-04-22T12:36:28.765Z,95430.57
2019-04-22T12:38:58.037Z,95422.38
2019-04-22T12:41:27.784Z,95424.86
2019-04-22T12:43:56.746Z,95417.60
2019-04-22T12:46:26.107Z,95433.28
2019-04-22T12:48:56.259Z,95422.64
2019-04-22T12:51:27.244Z,95422.64
2019-04-22T12:53:57.180Z,95414.48
2019-04-22T12:56:27.498Z,95408.93
2019-04-22T12:58:56.761Z,95404.91
2019-04-22T13:01:26.754Z,95394.14
2019-04-22T13:04:02.047Z,95397.80
2019-04-22T13:06:27.948Z,95391.45
2019-04-22T13:08:57.212Z,95392.94
2019-04-22T13:11:30.801Z,95393.80
2019-04-22T13:13:56.750Z,95388.77
2019-04-22T13:16:26.982Z,95384.94
2019-04-22T13:19:00.138Z,95386.38
2019-04-22T13:21:28.931Z,95382.66
2019-04-22T13:23:59.099Z,95391.64
2019-04-22T13:26:27.846Z,95387.88
2019-04-22T13:28:56.948Z,95385.70
2019-04-22T13:31:26.832Z,95391.64
2019-04-22T13:33:59.715Z,95387.24
2019-04-22T13:36:27.934Z,95390.86
2019-04-22T13:38:56.516Z,95388.91
2019-04-22T13:43:56.079Z,95382.72
2019-04-22T13:46:26.360Z,95390.09
2019-04-22T13:49:25.214Z,95383.02
2019-04-22T13:51:52.850Z,95382.03
2019-04-22T13:53:53.453Z,95384.81
2019-04-22T13:56:49.093Z,95379.19
2019-04-22T13:59:09.226Z,95381.19
2019-04-22T14:01:30.262Z,95388.34
2019-04-22T14:04:00.806Z,95382.71
2019-04-22T14:06:29.425Z,95385.61
2019-04-22T14:08:59.071Z,95384.08
2019-04-22T14:11:39.040Z,95384.79
2019-04-22T14:13:58.729Z,95384.70
2019-04-22T14:16:28.990Z,95393.77
2019-04-22T14:18:58.205Z,95384.55
2019-04-22T14:21:27.120Z,95390.08
2019-04-22T14:23:56.409Z,95387.14
2019-04-22T14:26:25.217Z,95385.62
2019-04-22T14:28:53.868Z,95396.53
2019-04-22T14:31:22.579Z,95388.48
2019-04-22T14:33:55.979Z,95396.32
2019-04-22T14:36:21.656Z,95398.45
2019-04-22T14:38:50.277Z,95402.39
2019-04-22T14:44:12.633Z,95407.06
2019-04-22T14:44:49.557Z,95396.41
2019-04-22T14:46:49.863Z,95404.94
2019-04-22T14:49:19.413Z,95406.25
2019-04-22T14:51:45.891Z,95411.14
2019-04-22T14:54:10.101Z,95414.83
2019-04-22T14:56:22.450Z,95421.84
2019-04-22T14:58:51.248Z,95411.22
2019-04-22T15:01:21.085Z,95413.77
2019-04-22T15:03:50.377Z,95414.73
2019-04-22T15:06:22.339Z,95412.77
2019-04-22T15:08:53.996Z,95414.59
2019-04-22T15:11:21.445Z,95413.41
2019-04-22T15:13:51.540Z,95407.84
2019-04-22T15:16:25.847Z,95423.66
2019-04-22T15:18:59.967Z,95432.70
2019-04-22T15:21:32.476Z,95432.47
2019-04-22T15:24:04.513Z,95436.11
2019-04-22T15:26:34.629Z,95461.57
2019-04-22T15:29:03.425Z,95453.52
2019-04-22T15:31:33.243Z,95443.75
2019-04-22T15:34:02.633Z,95447.04
2019-04-22T15:36:32.402Z,95454.88
2019-04-22T15:39:02.861Z,95448.69
2019-04-22T15:41:32.654Z,95448.49
2019-04-22T15:44:01.954Z,95457.02
2019-04-22T15:46:31.938Z,95452.27
2019-04-22T15:49:02.133Z,95465.55
2019-04-22T15:51:31.964Z,95459.57
2019-04-22T15:54:01.427Z,95458.95
2019-04-22T15:56:30.647Z,95451.05
2019-04-22T15:58:59.794Z,95454.50
2019-04-22T16:01:34.034Z,95446.88
2019-04-22T16:04:00.632Z,95450.36
2019-04-22T16:06:30.120Z,95444.06
2019-04-22T16:08:59.978Z,95454.91
2019-04-22T16:11:29.734Z,95447.29
2019-04-22T16:14:00.078Z,95455.00
2019-04-22T16:16:30.371Z,95453.81
2019-04-22T16:19:00.645Z,95464.47
2019-04-22T16:21:39.760Z,95465.79
2019-04-22T16:24:20.220Z,95462.35
2019-04-22T16:26:51.849Z,95475.97
2019-04-22T16:29:21.289Z,95474.25
2019-04-22T16:31:51.476Z,95467.86
2019-04-22T16:34:21.663Z,95468.30
2019-04-22T16:36:50.375Z,95471.26
2019-04-22T16:39:20.610Z,95475.09
2019-04-22T16:41:50.806Z,95475.97
2019-04-22T16:44:20.741Z,95471.34
2019-04-22T16:46:50.039Z,95477.32
2019-04-22T16:49:19.417Z,95476.48
2019-04-22T16:51:48.280Z,95476.52
2019-04-22T16:54:18.013Z,95480.82
2019-04-22T16:56:48.001Z,95472.72
2019-04-22T16:59:17.083Z,95473.20
2019-04-22T17:01:48.495Z,95475.31
2019-04-22T17:04:20.671Z,95477.06
2019-04-22T17:06:51.104Z,95474.94
2019-04-22T17:09:21.517Z,95471.52
2019-04-22T17:11:52.008Z,95471.91
2019-04-22T17:14:29.985Z,95469.80
2019-04-22T17:16:52.744Z,95471.08
2019-04-22T17:19:21.772Z,95468.09
2019-04-22T17:21:50.978Z,95467.69
2019-04-22T17:24:19.612Z,95470.23
2019-04-22T17:26:48.475Z,95472.35
2019-04-22T17:29:18.666Z,95471.08
2019-04-22T17:31:54.512Z,95466.84
2019-04-22T17:34:17.887Z,95471.52
2019-04-22T17:36:46.715Z,95468.99
2019-04-22T17:39:30.650Z,95476.72
2019-04-22T17:42:03.341Z,95478.42
2019-04-22T17:44:42.304Z,95472.95
2019-04-22T17:47:02.468Z,95470.83
2019-04-22T17:49:54.095Z,95471.32
2019-04-22T17:54:53.809Z,95479.84
2019-04-22T17:57:23.822Z,95486.66
2019-04-22T17:59:53.440Z,95493.47
2019-04-22T18:02:22.615Z,95501.13
2019-04-22T18:04:42.902Z,95500.27
2019-04-22T18:07:29.618Z,95507.48
2019-04-22T18:12:35.729Z,95512.59
2019-04-22T18:15:02.749Z,95511.75
2019-04-22T18:17:32.253Z,95509.61
2019-04-22T18:19:53.171Z,95511.75
2019-04-22T18:22:19.768Z,95507.49
2019-04-22T18:24:53.162Z,95513.88
2019-04-22T18:27:40.189Z,95511.31
2019-04-22T18:29:58.205Z,95520.25
2019-04-22T18:32:21.766Z,95515.98
2019-04-22T18:34:50.573Z,95524.92
2019-04-22T18:37:19.905Z,95526.63
2019-04-22T18:39:57.010Z,95530.03
2019-04-22T18:42:24.388Z,95534.27
2019-04-22T18:45:20.366Z,95535.11
2019-04-22T18:47:25.401Z,95535.12
2019-04-22T18:49:54.994Z,95543.19
2019-04-22T18:52:48.757Z,95540.20
2019-04-22T18:55:25.140Z,95540.22
2019-04-22T18:58:11.676Z,95538.08
2019-04-22T19:00:29.310Z,95538.92
2019-04-22T19:03:03.855Z,95536.80
2019-04-22T19:05:45.427Z,95543.59
2019-04-22T19:08:23.048Z,95541.47
2019-04-22T19:10:57.541Z,95539.77
2019-04-22T19:13:50.119Z,95537.23
2019-04-22T19:16:09.693Z,95538.94
2019-04-22T19:18:31.907Z,95534.29
2019-04-22T19:20:57.738Z,95539.83
2019-04-22T19:23:28.468Z,95532.17
2019-04-22T19:25:51.158Z,95531.33
2019-04-22T19:28:29.181Z,95544.11
2019-04-22T19:31:05.928Z,95544.54
2019-04-22T19:33:28.958Z,95534.34
2019-04-22T19:35:59.868Z,95532.23
2019-04-22T19:38:16.366Z,95526.72
2019-04-22T19:43:28.272Z,95539.92
2019-04-22T19:45:58.954Z,95536.52
2019-04-22T19:51:11.350Z,95535.68
2019-04-22T19:53:37.132Z,95536.12
2019-04-22T19:56:01.408Z,95533.98
2019-04-22T19:58:32.433Z,95538.69
2019-04-22T20:01:12.976Z,95536.94
2019-04-22T20:04:03.439Z,95535.25
2019-04-22T20:06:38.398Z,95536.12
2019-04-22T20:09:13.692Z,95535.68
2019-04-22T20:11:41.398Z,95535.67
2019-04-22T20:14:12.687Z,95524.63
2019-04-22T20:16:34.303Z,95527.20
2019-04-22T20:19:12.385Z,95525.90
2019-04-22T20:21:40.565Z,95532.30
2019-04-22T20:24:00.819Z,95530.61
2019-04-22T20:26:45.584Z,95530.60
2019-04-22T20:29:11.718Z,95527.63
2019-04-22T20:31:48.654Z,95530.58
2019-04-22T20:34:14.428Z,95527.20
2019-04-22T20:37:03.572Z,95525.08
2019-04-22T20:39:09.188Z,95528.47
2019-04-22T20:41:36.620Z,95529.33
2019-04-22T20:44:15.949Z,95525.50
2019-04-22T20:46:44.894Z,95519.98
2019-04-22T20:49:20.711Z,95516.59
2019-04-22T20:51:54.209Z,95528.91
2019-04-22T20:54:17.828Z,95519.56
2019-04-22T20:56:48.232Z,95516.59
2019-04-22T20:59:19.038Z,95518.75
2019-04-22T21:01:43.235Z,95520.88
2019-04-22T21:04:05.247Z,95523.42
2019-04-22T21:06:47.324Z,95525.16
2019-04-22T21:09:22.075Z,95523.03
2019-04-22T21:11:49.407Z,95523.89
2019-04-22T21:14:17.782Z,95526.43
2019-04-22T21:16:56.452Z,95515.38
2019-04-22T21:19:38.579Z,95517.48
2019-04-22T21:22:00.163Z,95511.97
2019-04-22T21:24:23.635Z,95517.09
2019-04-22T21:26:56.921Z,95515.79
2019-04-22T21:29:21.817Z,95520.90
2019-04-22T21:31:54.596Z,95515.36
2019-04-22T21:34:23.324Z,95510.27
2019-04-22T21:37:02.553Z,95511.11
2019-04-22T21:39:28.999Z,95514.09
2019-04-22T21:41:59.765Z,95510.68
2019-04-22T21:44:32.387Z,95517.91
2019-04-22T21:47:10.851Z,95516.66
2019-04-22T21:49:38.989Z,95516.66
2019-04-22T21:52:08.102Z,95514.51
2019-04-22T21:54:45.503Z,95512.83
2019-04-22T21:57:33.497Z,95511.95
2019-04-22T21:59:46.251Z,95515.80
2019-04-22T22:02:25.186Z,95509.84
2019-04-22T22:04:48.954Z,95510.70
2019-04-22T22:07:11.106Z,95511.55
2019-04-22T22:09:53.944Z,95512.39
2019-04-22T22:12:17.823Z,95506.41
2019-04-22T22:15:00.526Z,95513.64
2019-04-22T22:17:25.992Z,95510.23
2019-04-22T22:19:52.892Z,95503.42
2019-04-22T22:22:42.116Z,95501.28
2019-04-22T22:25:00.035Z,95500.42
2019-04-22T22:27:34.260Z,95500.41
2019-04-22T22:30:06.829Z,95499.14
2019-04-22T22:32:30.386Z,95493.20
2019-04-22T22:35:03.837Z,95498.70
2019-04-22T22:37:22.054Z,95496.16
2019-04-22T22:39:54.515Z,95498.25
2019-04-22T22:42:23.815Z,95500.40
2019-04-22T22:44:48.660Z,95494.02
2019-04-22T22:47:35.858Z,95488.48
2019-04-22T22:50:03.265Z,95490.17
2019-04-22T22:52:53.272Z,95490.61
2019-04-22T22:55:03.893Z,95490.61
2019-04-22T22:57:39.911Z,95485.91
2019-04-22T23:00:05.029Z,95488.90
2019-04-22T23:02:47.233Z,95484.23
2019-04-22T23:05:09.573Z,95485.50
2019-04-22T23:07:42.759Z,95485.91
2019-04-22T23:10:09.609Z,95482.52
2019-04-22T23:15:04.689Z,95471.91
2019-04-22T23:17:25.435Z,95468.51
2019-04-22T23:19:52.797Z,95471.05
2019-04-22T23:22:30.254Z,95468.52
2019-04-22T23:25:25.189Z,95467.27
2019-04-22T23:27:53.999Z,95471.50
2019-04-22T23:30:38.250Z,95468.52
2019-04-22T23:33:18.744Z,95474.49
2019-04-22T23:35:46.590Z,95472.78
2019-04-22T23:38:15.406Z,95472.38
2019-04-22T23:40:52.677Z,95466.85
2019-04-22T23:43:28.826Z,95464.72
2019-04-22T23:45:56.695Z,95466.84
2019-04-22T23:48:21.071Z,95463.42
2019-04-22T23:50:57.341Z,95462.16
2019-04-22T23:53:42.372Z,95466.39
2019-04-22T23:56:02.679Z,95462.56
2019-04-22T23:58:48.139Z,95465.95
